Terminal Aerodrome Forecast
Issued by NWS

Home | Current Version | Previous Version | Text Only | Print | Product List | Glossary On
Versions: 1 2 3 4 5 6 7 8 9 10 11 12 13 14 15 16 17 18 19
716
FTUS43 KIND 011725
TAFBMG
TAF
KBMG 011725Z 0118/0218 27016G28KT P6SM BKN015
     FM011900 27016G28KT P6SM BKN020
     FM012200 28018G31KT P6SM BKN035
     FM020300 29012G23KT P6SM BKN035
     FM020400 29012G21KT P6SM BKN030
     FM020500 30011G19KT P6SM SCT030
     FM021500 28007KT P6SM BKN035
     FM021600 27008KT P6SM SCT050=

USA.gov is the U.S. government's official web portal to all federal, state and local government web resources and services.